Terminal Aerodrome Forecast
Issued by NWS

Home | Current Version | Previous Version | Text Only | Print | Product List | Glossary Off
Versions: 1 2 3 4 5 6 7 8 9 10 11 12 13 14 15 16 17 18 19 20 21 22

000
FTUS43 KICT 191132
TAFCNU
TAF
KCNU 191132Z 1912/2012 16007KT 1SM BR OVC002
      TEMPO 1912/1914 1/2SM FG
     FM191700 16005KT 4SM BR OVC008
     FM192000 15007KT P6SM OVC012
     FM200000 12005KT P6SM -DZ OVC012
     FM200500 12004KT P6SM -DZ BKN003=

USA.gov is the U.S. government's official web portal to all federal, state and local government web resources and services.